createdAt,value
2018-02-04T00:00:39.164Z,15.82
2018-02-04T00:03:07.295Z,20.15
2018-02-04T00:05:35.518Z,17.75
2018-02-04T00:08:03.775Z,13.05
2018-02-04T00:10:32.115Z,16.52
2018-02-04T00:13:00.580Z,17.90
2018-02-04T00:15:28.977Z,17.92
2018-02-04T00:17:57.167Z,15.93
2018-02-04T00:20:25.212Z,18.33
2018-02-04T00:22:53.389Z,16.27
2018-02-04T00:25:21.686Z,17.45
2018-02-04T00:27:49.948Z,17.45
2018-02-04T00:30:18.258Z,16.27
2018-02-04T00:32:46.434Z,19.65
2018-02-04T00:35:14.726Z,17.83
2018-02-04T00:37:42.924Z,19.92
2018-02-04T00:40:11.120Z,20.35
2018-02-04T00:42:39.317Z,18.65
2018-02-04T00:45:07.615Z,20.35
2018-02-04T00:47:35.873Z,14.82
2018-02-04T00:50:04.306Z,18.08
2018-02-04T00:52:32.754Z,16.58
2018-02-04T00:55:01.210Z,19.58
2018-02-04T00:57:29.405Z,15.65
2018-02-04T00:59:57.529Z,22.48
2018-02-04T01:02:25.578Z,24.27
2018-02-04T01:04:53.812Z,15.40
2018-02-04T01:07:22.091Z,16.15
2018-02-04T01:09:50.282Z,19.90
2018-02-04T01:12:18.461Z,16.00
2018-02-04T01:14:46.753Z,16.30
2018-02-04T01:17:14.960Z,17.77
2018-02-04T01:19:44.276Z,16.55
2018-02-04T01:22:12.621Z,17.20
2018-02-04T01:24:40.849Z,14.23
2018-02-04T01:27:09.886Z,14.65
2018-02-04T01:29:38.280Z,19.80
2018-02-04T01:32:06.668Z,17.45
2018-02-04T01:34:34.996Z,14.20
2018-02-04T01:37:03.485Z,15.50
2018-02-04T01:39:31.692Z,14.18
2018-02-04T01:41:59.855Z,11.90
2018-02-04T01:44:28.110Z,17.70
2018-02-04T01:46:56.173Z,11.55
2018-02-04T01:49:24.536Z,15.07
2018-02-04T01:51:52.750Z,15.60
2018-02-04T01:54:21.236Z,15.25
2018-02-04T01:56:49.358Z,15.48
2018-02-04T01:59:17.628Z,16.02
2018-02-04T02:01:45.728Z,16.45
2018-02-04T02:04:13.925Z,13.88
2018-02-04T02:06:42.324Z,17.77
2018-02-04T02:09:10.614Z,18.10
2018-02-04T02:11:38.805Z,16.55
2018-02-04T02:14:07.014Z,18.27
2018-02-04T02:16:37.260Z,17.77
2018-02-04T02:19:05.443Z,21.65
2018-02-04T02:21:33.641Z,18.00
2018-02-04T02:24:01.606Z,19.30
2018-02-04T02:26:29.946Z,20.30
2018-02-04T02:28:58.106Z,15.68
2018-02-04T02:31:26.916Z,20.83
2018-02-04T02:33:55.115Z,17.42
2018-02-04T02:36:23.310Z,18.60
2018-02-04T02:38:51.445Z,18.35
2018-02-04T02:41:19.614Z,18.17
2018-02-04T02:43:48.615Z,22.48
2018-02-04T02:46:17.001Z,19.15
2018-02-04T02:48:45.274Z,15.82
2018-02-04T02:51:13.804Z,17.30
2018-02-04T02:53:42.308Z,18.27
2018-02-04T02:56:10.514Z,19.75
2018-02-04T02:58:38.901Z,19.73
2018-02-04T03:01:07.198Z,21.73
2018-02-04T03:03:35.328Z,19.60
2018-02-04T03:06:04.568Z,17.48
2018-02-04T03:08:32.689Z,18.75
2018-02-04T03:11:00.887Z,16.35
2018-02-04T03:13:29.099Z,21.55
2018-02-04T03:15:57.279Z,19.48
2018-02-04T03:18:25.479Z,19.42
2018-02-04T03:20:53.530Z,20.10
2018-02-04T03:23:21.780Z,16.62
2018-02-04T03:25:49.966Z,20.00
2018-02-04T03:28:18.120Z,19.05
2018-02-04T03:30:46.567Z,17.12
2018-02-04T03:33:15.194Z,20.17
2018-02-04T03:35:43.442Z,19.30
2018-02-04T03:38:11.948Z,15.82
2018-02-04T03:40:40.235Z,19.33
2018-02-04T03:43:08.575Z,15.52
2018-02-04T03:45:36.738Z,15.05
2018-02-04T03:48:05.861Z,17.17
2018-02-04T03:50:34.276Z,15.93
2018-02-04T03:53:02.557Z,15.25
2018-02-04T03:55:30.624Z,13.80
2018-02-04T03:57:58.587Z,14.40
2018-02-04T04:00:26.932Z,13.70
2018-02-04T04:02:55.234Z,13.40
2018-02-04T04:05:23.511Z,18.27
2018-02-04T04:07:51.629Z,13.85
2018-02-04T04:10:20.030Z,15.98
2018-02-04T04:12:48.552Z,15.05
2018-02-04T04:15:16.788Z,13.75
2018-02-04T04:17:45.351Z,12.15
2018-02-04T04:20:14.036Z,12.45
2018-02-04T04:22:42.632Z,15.18
2018-02-04T04:25:11.564Z,15.05
2018-02-04T04:27:42.072Z,15.55
2018-02-04T04:30:10.745Z,14.52
2018-02-04T04:32:40.030Z,15.23
2018-02-04T04:35:08.540Z,13.07
2018-02-04T04:37:37.635Z,13.85
2018-02-04T04:40:06.685Z,14.48
2018-02-04T04:42:35.887Z,15.77
2018-02-04T04:45:04.761Z,11.77
2018-02-04T04:47:34.376Z,16.50
2018-02-04T04:50:03.626Z,15.23
2018-02-04T04:52:33.159Z,16.62
2018-02-04T04:55:01.616Z,10.27
2018-02-04T04:57:30.466Z,14.65
2018-02-04T04:59:59.856Z,13.07
2018-02-04T05:02:32.684Z,12.48
2018-02-04T05:05:01.459Z,14.38
2018-02-04T05:07:30.118Z,15.38
2018-02-04T05:09:58.803Z,13.15
2018-02-04T05:12:28.114Z,15.07
2018-02-04T05:14:57.047Z,14.75
2018-02-04T05:17:26.336Z,16.42
2018-02-04T05:19:54.480Z,10.82
2018-02-04T05:22:23.840Z,11.10
2018-02-04T05:24:52.071Z,13.43
2018-02-04T05:27:20.742Z,13.98
2018-02-04T05:29:49.014Z,14.30
2018-02-04T05:32:17.332Z,15.55
2018-02-04T05:34:45.731Z,15.18
2018-02-04T05:37:14.025Z,14.10
2018-02-04T05:39:43.355Z,15.32
2018-02-04T05:42:11.567Z,15.52
2018-02-04T05:44:39.761Z,14.30
2018-02-04T05:47:07.922Z,12.35
2018-02-04T05:49:36.044Z,12.43
2018-02-04T05:52:04.300Z,9.77
2018-02-04T05:54:32.451Z,14.20
2018-02-04T05:57:01.010Z,12.70
2018-02-04T05:59:29.105Z,18.12
2018-02-04T06:01:57.296Z,15.20
2018-02-04T06:04:25.699Z,18.33
2018-02-04T06:06:53.996Z,13.82
2018-02-04T06:09:22.211Z,14.93
2018-02-04T06:11:50.480Z,20.02
2018-02-04T06:14:18.514Z,15.98
2018-02-04T06:16:47.069Z,13.60
2018-02-04T06:19:15.280Z,13.10
2018-02-04T06:21:43.503Z,10.68
2018-02-04T06:24:11.555Z,10.10
2018-02-04T06:26:40.725Z,10.13
2018-02-04T06:29:08.979Z,9.07
2018-02-04T06:31:37.255Z,9.68
2018-02-04T06:34:05.463Z,11.43
2018-02-04T06:36:33.726Z,8.13
2018-02-04T06:39:02.039Z,11.23
2018-02-04T06:41:30.451Z,7.82
2018-02-04T06:43:59.010Z,8.30
2018-02-04T06:46:27.575Z,7.53
2018-02-04T06:48:56.215Z,14.25
2018-02-04T06:51:25.070Z,8.00
2018-02-04T06:53:53.624Z,9.93
2018-02-04T06:56:22.280Z,10.95
2018-02-04T06:58:51.114Z,10.85
2018-02-04T07:01:19.642Z,8.60
2018-02-04T07:03:47.876Z,8.38
2018-02-04T07:06:16.169Z,10.00
2018-02-04T07:08:44.456Z,10.55
2018-02-04T07:11:12.916Z,11.15
2018-02-04T07:13:41.377Z,7.32
2018-02-04T07:16:10.832Z,8.50
2018-02-04T07:18:40.120Z,9.55
2018-02-04T07:21:08.302Z,11.30
2018-02-04T07:23:37.118Z,11.93
2018-02-04T07:26:05.760Z,10.20
2018-02-04T07:28:34.451Z,9.27
2018-02-04T07:31:02.807Z,7.32
2018-02-04T07:33:31.145Z,15.00
2018-02-04T07:35:59.328Z,8.63
2018-02-04T07:38:27.722Z,9.20
2018-02-04T07:40:55.922Z,11.88
2018-02-04T07:43:24.403Z,7.60
2018-02-04T07:45:52.600Z,11.98
2018-02-04T07:48:21.119Z,9.55
2018-02-04T07:50:49.496Z,8.30
2018-02-04T07:53:17.813Z,8.23
2018-02-04T07:55:45.835Z,8.98
2018-02-04T07:58:14.307Z,7.90
2018-02-04T08:00:42.506Z,8.63
2018-02-04T08:03:10.993Z,7.87
2018-02-04T08:05:39.124Z,8.57
2018-02-04T08:08:07.320Z,8.30
2018-02-04T08:10:35.473Z,10.38
2018-02-04T08:13:03.776Z,10.35
2018-02-04T08:15:32.079Z,12.63
2018-02-04T08:18:00.373Z,9.73
2018-02-04T08:20:28.652Z,12.85
2018-02-04T08:22:57.035Z,11.20
2018-02-04T08:25:25.352Z,9.07
2018-02-04T08:27:53.657Z,9.55
2018-02-04T08:30:21.744Z,9.18
2018-02-04T08:32:49.942Z,9.43
2018-02-04T08:35:18.140Z,9.93
2018-02-04T08:37:46.217Z,10.88
2018-02-04T08:40:14.322Z,7.15
2018-02-04T08:42:42.721Z,7.05
2018-02-04T08:45:10.819Z,9.93
2018-02-04T08:47:39.106Z,11.80
2018-02-04T08:50:07.290Z,8.75
2018-02-04T08:52:35.603Z,7.07
2018-02-04T08:55:03.903Z,7.95
2018-02-04T08:57:32.180Z,7.28
2018-02-04T09:00:00.479Z,8.10
2018-02-04T09:02:28.683Z,5.95
2018-02-04T09:04:56.977Z,7.28
2018-02-04T09:07:25.280Z,7.32
2018-02-04T09:09:53.381Z,9.75
2018-02-04T09:12:21.568Z,6.53
2018-02-04T09:14:49.515Z,9.30
2018-02-04T09:17:17.849Z,8.80
2018-02-04T09:19:45.843Z,8.55
2018-02-04T09:22:14.230Z,6.70
2018-02-04T09:24:42.366Z,10.05
2018-02-04T09:27:10.525Z,6.75
2018-02-04T09:29:38.617Z,9.35
2018-02-04T09:32:06.911Z,10.15
2018-02-04T09:34:35.216Z,8.30
2018-02-04T09:37:03.464Z,7.90
2018-02-04T09:39:31.803Z,9.25
2018-02-04T09:42:00.211Z,9.80
2018-02-04T09:44:28.492Z,9.40
2018-02-04T09:46:56.693Z,8.55
2018-02-04T09:49:24.847Z,12.35
2018-02-04T09:51:53.076Z,10.90
2018-02-04T09:54:21.266Z,9.30
2018-02-04T09:56:49.339Z,7.70
2018-02-04T09:59:17.657Z,9.52
2018-02-04T10:01:45.649Z,6.57
2018-02-04T10:04:13.941Z,9.40
2018-02-04T10:06:42.243Z,8.68
2018-02-04T10:09:10.442Z,9.75
2018-02-04T10:11:38.674Z,12.88
2018-02-04T10:14:07.022Z,10.32
2018-02-04T10:16:35.057Z,23.90
2018-02-04T10:19:03.216Z,12.93
2018-02-04T10:21:31.336Z,9.73
2018-02-04T10:23:59.500Z,9.70
2018-02-04T10:26:27.556Z,9.23
2018-02-04T10:28:55.796Z,7.55
2018-02-04T10:31:24.016Z,10.15
2018-02-04T10:33:52.284Z,8.35
2018-02-04T10:36:20.409Z,10.65
2018-02-04T10:38:48.908Z,9.05
2018-02-04T10:41:17.180Z,13.77
2018-02-04T10:43:45.368Z,9.60
2018-02-04T10:46:13.443Z,10.18
2018-02-04T10:48:41.957Z,9.25
2018-02-04T10:51:10.252Z,8.00
2018-02-04T10:53:38.880Z,11.45
2018-02-04T10:56:07.161Z,8.05
2018-02-04T10:58:35.397Z,10.20
2018-02-04T11:01:03.750Z,8.95
2018-02-04T11:03:32.155Z,8.43
2018-02-04T11:06:00.456Z,12.65
2018-02-04T11:08:28.614Z,9.65
2018-02-04T11:10:56.835Z,9.68
2018-02-04T11:13:25.144Z,7.00
2018-02-04T11:15:53.434Z,7.57
2018-02-04T11:18:22.457Z,9.63
2018-02-04T11:20:50.668Z,10.68
2018-02-04T11:23:18.724Z,9.63
2018-02-04T11:25:46.813Z,9.40
2018-02-04T11:28:15.032Z,10.68
2018-02-04T11:30:43.198Z,8.52
2018-02-04T11:33:11.497Z,7.87
2018-02-04T11:35:39.800Z,10.90
2018-02-04T11:38:08.094Z,7.32
2018-02-04T11:40:36.498Z,8.13
2018-02-04T11:43:04.784Z,11.15
2018-02-04T11:45:33.096Z,7.07
2018-02-04T11:48:01.281Z,7.35
2018-02-04T11:50:29.583Z,7.68
2018-02-04T11:52:57.869Z,6.68
2018-02-04T11:55:26.178Z,6.60
2018-02-04T11:57:54.375Z,6.55
2018-02-04T12:00:22.563Z,5.30
2018-02-04T12:02:50.657Z,6.22
2018-02-04T12:05:18.702Z,5.90
2018-02-04T12:07:46.838Z,5.55
2018-02-04T12:10:15.134Z,7.55
2018-02-04T12:12:43.339Z,5.30
2018-02-04T12:15:11.525Z,7.32
2018-02-04T12:17:39.714Z,6.85
2018-02-04T12:20:08.010Z,8.85
2018-02-04T12:22:36.204Z,5.22
2018-02-04T12:25:04.403Z,8.15
2018-02-04T12:27:32.700Z,5.22
2018-02-04T12:30:01.044Z,5.35
2018-02-04T12:32:29.182Z,7.30
2018-02-04T12:34:57.387Z,6.95
2018-02-04T12:37:25.485Z,4.55
2018-02-04T12:39:53.666Z,7.72
2018-02-04T12:42:21.760Z,6.80
2018-02-04T12:44:49.965Z,6.85
2018-02-04T12:47:17.985Z,5.25
2018-02-04T12:49:46.208Z,6.10
2018-02-04T12:52:14.547Z,10.95
2018-02-04T12:54:42.942Z,6.10
2018-02-04T12:57:11.009Z,5.90
2018-02-04T12:59:39.321Z,8.23
2018-02-04T13:02:07.413Z,6.82
2018-02-04T13:04:35.617Z,7.43
2018-02-04T13:07:03.907Z,5.12
2018-02-04T13:09:32.080Z,5.57
2018-02-04T13:12:00.316Z,6.10
2018-02-04T13:14:28.497Z,5.97
2018-02-04T13:16:56.783Z,6.75
2018-02-04T13:19:25.087Z,5.18
2018-02-04T13:21:53.190Z,6.70
2018-02-04T13:24:21.366Z,5.20
2018-02-04T13:26:49.677Z,4.75
2018-02-04T13:29:17.965Z,6.15
2018-02-04T13:31:45.975Z,5.70
2018-02-04T13:34:14.265Z,7.55
2018-02-04T13:36:42.438Z,7.03
2018-02-04T13:39:11.456Z,5.72
2018-02-04T13:41:39.656Z,6.72
2018-02-04T13:44:07.743Z,8.75
2018-02-04T13:46:35.914Z,9.25
2018-02-04T13:49:04.034Z,10.15
2018-02-04T13:51:32.157Z,11.57
2018-02-04T13:54:00.523Z,11.00
2018-02-04T13:56:29.330Z,11.07
2018-02-04T13:58:57.419Z,13.85
2018-02-04T14:01:25.632Z,14.02
2018-02-04T14:03:53.824Z,16.62
2018-02-04T14:06:21.939Z,12.93
2018-02-04T14:08:50.302Z,16.80
2018-02-04T14:11:18.615Z,13.52
2018-02-04T14:13:46.653Z,12.70
2018-02-04T14:16:14.983Z,13.80
2018-02-04T14:18:43.272Z,13.60
2018-02-04T14:21:11.320Z,10.48
2018-02-04T14:23:39.586Z,13.75
2018-02-04T14:26:07.708Z,14.18
2018-02-04T14:28:35.925Z,18.87
2018-02-04T14:31:04.162Z,13.38
2018-02-04T14:33:32.359Z,13.20
2018-02-04T14:36:00.659Z,11.23
2018-02-04T14:38:28.876Z,14.30
2018-02-04T14:40:57.249Z,10.85
2018-02-04T14:43:25.576Z,10.00
2018-02-04T14:45:53.833Z,12.43
2018-02-04T14:48:22.144Z,12.40
2018-02-04T14:50:50.455Z,14.63
2018-02-04T14:53:18.647Z,13.95
2018-02-04T14:55:46.923Z,15.55
2018-02-04T14:58:15.316Z,11.10
2018-02-04T15:00:43.625Z,14.07
2018-02-04T15:03:11.901Z,13.57
2018-02-04T15:05:40.216Z,15.90
2018-02-04T15:08:08.821Z,15.48
2018-02-04T15:10:37.026Z,13.62
2018-02-04T15:13:05.106Z,13.50
2018-02-04T15:15:33.286Z,15.20
2018-02-04T15:18:01.390Z,15.52
2018-02-04T15:20:29.586Z,14.60
2018-02-04T15:22:57.712Z,11.82
2018-02-04T15:25:26.127Z,12.18
2018-02-04T15:27:54.367Z,21.23
2018-02-04T15:30:22.667Z,14.32
2018-02-04T15:32:51.170Z,16.45
2018-02-04T15:35:19.250Z,17.17
2018-02-04T15:37:47.349Z,14.75
2018-02-04T15:40:15.449Z,17.35
2018-02-04T15:42:43.739Z,25.40
2018-02-04T15:45:11.820Z,20.77
2018-02-04T15:47:39.922Z,15.80
2018-02-04T15:50:08.058Z,17.05
2018-02-04T15:52:36.102Z,21.65
2018-02-04T15:55:04.092Z,25.00
2018-02-04T15:57:33.001Z,19.10
2018-02-04T16:00:00.989Z,22.00
2018-02-04T16:02:29.076Z,28.08
2018-02-04T16:04:57.079Z,31.12
2018-02-04T16:07:25.158Z,23.52
2018-02-04T16:09:53.275Z,23.10
2018-02-04T16:12:21.455Z,25.95
2018-02-04T16:14:49.540Z,29.67
2018-02-04T16:17:17.695Z,27.98
2018-02-04T16:19:45.835Z,33.30
2018-02-04T16:22:14.135Z,29.33
2018-02-04T16:24:42.273Z,29.90
2018-02-04T16:27:10.627Z,32.15
2018-02-04T16:29:39.016Z,38.58
2018-02-04T16:32:07.222Z,28.40
2018-02-04T16:34:35.308Z,26.05
2018-02-04T16:37:03.502Z,24.00
2018-02-04T16:39:32.002Z,17.58
2018-02-04T16:42:00.202Z,19.65
2018-02-04T16:44:28.406Z,18.67
2018-02-04T16:46:56.626Z,19.80
2018-02-04T16:49:25.284Z,20.37
2018-02-04T16:51:53.484Z,21.20
2018-02-04T16:54:21.684Z,22.45
2018-02-04T16:56:49.999Z,24.37
2018-02-04T16:59:18.174Z,21.05
2018-02-04T17:01:46.262Z,23.75
2018-02-04T17:04:14.668Z,24.48
2018-02-04T17:06:42.848Z,25.08
2018-02-04T17:09:11.147Z,19.48
2018-02-04T17:11:39.445Z,19.77
2018-02-04T17:14:07.743Z,19.25
2018-02-04T17:16:35.941Z,20.10
2018-02-04T17:19:04.078Z,19.75
2018-02-04T17:21:32.224Z,25.05
2018-02-04T17:24:00.364Z,23.17
2018-02-04T17:26:28.725Z,23.10
2018-02-04T17:28:56.804Z,27.87
2018-02-04T17:31:24.876Z,32.95
2018-02-04T17:33:53.100Z,28.12
2018-02-04T17:36:21.397Z,30.88
2018-02-04T17:38:49.714Z,24.17
2018-02-04T17:41:17.829Z,25.25
2018-02-04T17:43:45.810Z,25.92
2018-02-04T17:46:14.054Z,28.70
2018-02-04T17:48:42.194Z,31.58
2018-02-04T17:51:10.249Z,29.65
2018-02-04T17:53:38.454Z,28.50
2018-02-04T17:56:07.045Z,24.70
2018-02-04T17:58:35.304Z,29.58
2018-02-04T18:01:03.449Z,25.12
2018-02-04T18:03:31.527Z,25.67
2018-02-04T18:05:59.736Z,25.23
2018-02-04T18:08:27.917Z,26.98
2018-02-04T18:10:56.095Z,27.87
2018-02-04T18:13:24.311Z,25.90
2018-02-04T18:15:52.409Z,30.75
2018-02-04T18:18:20.546Z,25.75
2018-02-04T18:20:49.366Z,32.58
2018-02-04T18:23:17.716Z,27.80
2018-02-04T18:25:45.777Z,24.08
2018-02-04T18:28:14.035Z,27.65
2018-02-04T18:30:42.196Z,31.58
2018-02-04T18:33:10.588Z,29.37
2018-02-04T18:35:38.888Z,29.25
2018-02-04T18:38:07.288Z,30.80
2018-02-04T18:40:35.368Z,28.75
2018-02-04T18:43:03.544Z,27.80
2018-02-04T18:45:31.765Z,26.85
2018-02-04T18:48:00.143Z,29.23
2018-02-04T18:50:28.350Z,27.80
2018-02-04T18:52:56.632Z,21.17
2018-02-04T18:55:24.996Z,26.67
2018-02-04T18:57:53.342Z,28.50
2018-02-04T19:00:21.365Z,32.42
2018-02-04T19:02:49.523Z,31.02
2018-02-04T19:05:17.622Z,30.62
2018-02-04T19:07:45.709Z,39.03
2018-02-04T19:10:13.647Z,35.33
2018-02-04T19:12:42.026Z,31.50
2018-02-04T19:15:10.406Z,30.65
2018-02-04T19:17:38.634Z,28.27
2018-02-04T19:20:06.786Z,35.17
2018-02-04T19:22:34.986Z,34.97
2018-02-04T19:25:03.086Z,28.60
2018-02-04T19:27:31.346Z,28.27
2018-02-04T19:29:59.727Z,26.77
2018-02-04T19:32:27.966Z,27.60
2018-02-04T19:34:56.156Z,39.75
2018-02-04T19:37:24.279Z,27.90
2018-02-04T19:39:53.029Z,29.37
2018-02-04T19:42:21.370Z,28.15
2018-02-04T19:44:49.479Z,24.98
2018-02-04T19:47:18.057Z,27.05
2018-02-04T19:49:46.082Z,33.95
2018-02-04T19:52:14.329Z,31.52
2018-02-04T19:54:42.622Z,28.83
2018-02-04T19:57:10.873Z,36.53
2018-02-04T19:59:38.916Z,34.03
2018-02-04T20:02:07.117Z,30.83
2018-02-04T20:04:35.217Z,34.88
2018-02-04T20:07:03.496Z,34.40
2018-02-04T20:09:31.556Z,34.28
2018-02-04T20:11:59.796Z,28.30
2018-02-04T20:14:27.916Z,31.62
2018-02-04T20:16:56.076Z,31.65
2018-02-04T20:19:24.118Z,29.55
2018-02-04T20:21:53.078Z,31.52
2018-02-04T20:24:21.276Z,24.17
2018-02-04T20:26:49.459Z,31.25
2018-02-04T20:29:17.756Z,29.83
2018-02-04T20:31:45.816Z,27.75
2018-02-04T20:34:14.259Z,27.20
2018-02-04T20:36:42.676Z,27.10
2018-02-04T20:39:10.937Z,25.70
2018-02-04T20:41:39.317Z,26.00
2018-02-04T20:44:07.621Z,29.73
2018-02-04T20:46:35.743Z,28.95
2018-02-04T20:49:04.035Z,38.45
2018-02-04T20:51:32.215Z,33.10
2018-02-04T20:54:00.416Z,32.85
2018-02-04T20:56:28.628Z,33.70
2018-02-04T20:58:56.744Z,28.38
2018-02-04T21:01:25.010Z,27.83
2018-02-04T21:03:53.149Z,18.50
2018-02-04T21:06:21.402Z,19.98
2018-02-04T21:08:49.808Z,25.50
2018-02-04T21:11:17.938Z,30.10
2018-02-04T21:13:46.180Z,30.70
2018-02-04T21:16:14.672Z,31.00
2018-02-04T21:18:43.171Z,29.48
2018-02-04T21:21:11.280Z,31.50
2018-02-04T21:23:39.540Z,31.33
2018-02-04T21:26:07.767Z,31.52
2018-02-04T21:28:36.027Z,28.87
2018-02-04T21:31:04.261Z,29.87
2018-02-04T21:33:32.400Z,30.27
2018-02-04T21:36:00.531Z,28.33
2018-02-04T21:38:28.794Z,37.25
2018-02-04T21:40:57.037Z,65.25
2018-02-04T21:43:25.556Z,64.15
2018-02-04T21:45:53.823Z,42.50
2018-02-04T21:48:22.134Z,37.17
2018-02-04T21:50:50.428Z,34.60
2018-02-04T21:53:18.575Z,26.52
2018-02-04T21:55:46.576Z,32.78
2018-02-04T21:58:14.899Z,29.60
2018-02-04T22:00:43.200Z,29.25
2018-02-04T22:03:11.394Z,27.50
2018-02-04T22:05:39.500Z,30.37
2018-02-04T22:08:07.780Z,28.27
2018-02-04T22:10:35.881Z,25.80
2018-02-04T22:13:04.120Z,27.92
2018-02-04T22:15:32.120Z,28.80
2018-02-04T22:18:00.360Z,26.77
2018-02-04T22:20:28.560Z,29.90
2018-02-04T22:22:56.818Z,25.42
2018-02-04T22:25:24.864Z,28.35
2018-02-04T22:27:53.067Z,28.92
2018-02-04T22:30:21.025Z,28.35
2018-02-04T22:32:49.220Z,29.85
2018-02-04T22:35:17.854Z,27.92
2018-02-04T22:37:45.979Z,25.95
2018-02-04T22:40:14.443Z,26.98
2018-02-04T22:42:42.665Z,29.85
2018-02-04T22:45:10.957Z,28.58
2018-02-04T22:47:40.206Z,28.75
2018-02-04T22:50:08.428Z,27.67
2018-02-04T22:52:36.725Z,23.10
2018-02-04T22:55:04.905Z,23.95
2018-02-04T22:57:33.103Z,26.87
2018-02-04T23:00:01.303Z,30.10
2018-02-04T23:02:29.470Z,24.45
2018-02-04T23:04:57.794Z,24.67
2018-02-04T23:07:25.911Z,24.67
2018-02-04T23:09:54.193Z,21.48
2018-02-04T23:12:22.280Z,25.58
2018-02-04T23:14:50.534Z,22.37
2018-02-04T23:17:18.821Z,20.12
2018-02-04T23:19:47.067Z,20.08
2018-02-04T23:22:15.361Z,22.52
2018-02-04T23:24:43.646Z,21.10
2018-02-04T23:27:12.061Z,20.65
2018-02-04T23:29:40.347Z,18.23
2018-02-04T23:32:08.546Z,15.00
2018-02-04T23:34:37.067Z,14.63
2018-02-04T23:37:05.326Z,16.45
2018-02-04T23:39:33.639Z,19.55
2018-02-04T23:42:01.837Z,20.15
2018-02-04T23:44:30.025Z,20.20
2018-02-04T23:46:58.152Z,16.98
2018-02-04T23:49:26.428Z,16.25
2018-02-04T23:51:54.515Z,20.42
2018-02-04T23:54:22.704Z,19.35
2018-02-04T23:56:50.908Z,26.45
2018-02-04T23:59:19.081Z,18.00
